createdAt,value
2018-12-19T00:01:26.630Z,45.38
2018-12-19T00:03:54.033Z,52.27
2018-12-19T00:06:21.444Z,53.08
2018-12-19T00:08:49.759Z,52.73
2018-12-19T00:11:17.200Z,51.53
2018-12-19T00:13:44.610Z,51.60
2018-12-19T00:16:12.022Z,52.88
2018-12-19T00:18:39.490Z,51.15
2018-12-19T00:21:06.905Z,52.45
2018-12-19T00:23:34.300Z,51.68
2018-12-19T00:26:01.752Z,50.50
2018-12-19T00:28:29.166Z,49.33
2018-12-19T00:30:56.563Z,41.50
2018-12-19T00:33:23.980Z,47.58
2018-12-19T00:35:52.388Z,41.65
2018-12-19T00:38:19.803Z,41.55
2018-12-19T00:40:47.224Z,57.58
2018-12-19T00:43:14.604Z,53.68
2018-12-19T00:45:42.012Z,47.70
2018-12-19T00:48:09.460Z,44.25
2018-12-19T00:50:36.891Z,43.63
2018-12-19T00:53:04.281Z,46.92
2018-12-19T00:55:31.745Z,37.58
2018-12-19T00:57:59.144Z,43.83
2018-12-19T01:00:26.576Z,38.53
2018-12-19T01:02:54.104Z,38.35
2018-12-19T01:05:21.488Z,36.08
2018-12-19T01:07:48.886Z,34.35
2018-12-19T01:10:16.302Z,34.18
2018-12-19T01:12:43.701Z,35.33
2018-12-19T01:15:11.121Z,30.65
2018-12-19T01:17:38.529Z,28.85
2018-12-19T01:20:05.974Z,34.25
2018-12-19T01:22:33.402Z,33.80
2018-12-19T01:25:00.797Z,39.40
2018-12-19T01:27:28.205Z,45.45
2018-12-19T01:29:55.608Z,36.95
2018-12-19T01:32:23.027Z,44.85
2018-12-19T01:34:50.420Z,36.65
2018-12-19T01:37:18.076Z,36.68
2018-12-19T01:39:45.488Z,35.43
2018-12-19T01:42:12.889Z,35.10
2018-12-19T01:44:40.292Z,33.70
2018-12-19T01:47:07.749Z,31.77
2018-12-19T01:49:35.257Z,34.35
2018-12-19T01:52:02.664Z,45.23
2018-12-19T01:54:30.066Z,38.10
2018-12-19T01:56:57.469Z,34.63
2018-12-19T01:59:24.868Z,34.45
2018-12-19T02:01:52.288Z,40.12
2018-12-19T02:04:19.690Z,33.98
2018-12-19T02:06:47.084Z,39.78
2018-12-19T02:09:14.847Z,33.15
2018-12-19T02:11:42.248Z,32.55
2018-12-19T02:14:09.659Z,31.60
2018-12-19T02:16:37.063Z,29.40
2018-12-19T02:19:04.528Z,33.90
2018-12-19T02:21:31.942Z,35.20
2018-12-19T02:23:59.693Z,31.05
2018-12-19T02:26:27.108Z,36.45
2018-12-19T02:28:54.570Z,38.50
2018-12-19T02:31:21.974Z,37.98
2018-12-19T02:33:49.479Z,45.15
2018-12-19T02:36:16.888Z,34.88
2018-12-19T02:38:44.297Z,35.63
2018-12-19T02:41:11.697Z,36.70
2018-12-19T02:43:39.107Z,36.48
2018-12-19T02:46:06.504Z,40.30
2018-12-19T02:48:33.912Z,35.78
2018-12-19T02:51:01.329Z,47.05
2018-12-19T02:53:28.808Z,40.70
2018-12-19T02:55:56.221Z,38.85
2018-12-19T02:58:23.616Z,41.92
2018-12-19T03:00:51.030Z,47.15
2018-12-19T03:03:18.439Z,47.62
2018-12-19T03:05:45.839Z,42.17
2018-12-19T03:08:13.309Z,44.45
2018-12-19T03:10:40.793Z,46.53
2018-12-19T03:13:08.283Z,46.88
2018-12-19T03:15:35.796Z,54.70
2018-12-19T03:18:03.252Z,48.87
2018-12-19T03:20:30.657Z,44.60
2018-12-19T03:22:58.065Z,47.95
2018-12-19T03:25:25.484Z,48.13
2018-12-19T03:27:52.890Z,53.98
2018-12-19T03:30:20.295Z,52.03
2018-12-19T03:32:47.698Z,54.13
2018-12-19T03:35:15.117Z,45.10
2018-12-19T03:37:42.523Z,51.90
2018-12-19T03:40:10.035Z,50.73
2018-12-19T03:42:37.531Z,43.13
2018-12-19T03:45:06.153Z,67.90
2018-12-19T03:47:33.564Z,42.03
2018-12-19T03:50:01.156Z,50.00
2018-12-19T03:52:28.548Z,37.13
2018-12-19T03:54:55.953Z,40.38
2018-12-19T03:57:23.591Z,36.63
2018-12-19T03:59:51.000Z,35.05
2018-12-19T04:02:18.455Z,37.33
2018-12-19T04:04:45.854Z,41.77
2018-12-19T04:07:13.279Z,30.62
2018-12-19T04:09:40.681Z,36.45
2018-12-19T04:12:08.106Z,37.05
2018-12-19T04:14:35.569Z,36.38
2018-12-19T04:17:02.984Z,33.53
2018-12-19T04:19:30.408Z,29.77
2018-12-19T04:21:57.949Z,36.25
2018-12-19T04:24:25.365Z,31.65
2018-12-19T04:26:52.767Z,33.13
2018-12-19T04:29:20.251Z,38.53
2018-12-19T04:31:47.676Z,36.77
2018-12-19T04:34:15.140Z,43.45
2018-12-19T04:36:42.529Z,39.48
2018-12-19T04:39:09.996Z,38.10
2018-12-19T04:41:37.404Z,36.17
2018-12-19T04:44:04.802Z,39.35
2018-12-19T04:46:32.218Z,29.98
2018-12-19T04:48:59.612Z,36.28
2018-12-19T04:51:27.021Z,35.30
2018-12-19T04:53:54.433Z,35.55
2018-12-19T04:56:21.847Z,38.20
2018-12-19T04:58:49.250Z,35.80
2018-12-19T05:01:16.752Z,37.95
2018-12-19T05:03:44.149Z,41.70
2018-12-19T05:06:11.549Z,35.45
2018-12-19T05:08:38.949Z,33.38
2018-12-19T05:11:06.359Z,31.35
2018-12-19T05:13:33.857Z,28.55
2018-12-19T05:16:01.269Z,40.60
2018-12-19T05:18:28.666Z,33.70
2018-12-19T05:20:56.061Z,38.90
2018-12-19T05:23:23.469Z,36.23
2018-12-19T05:25:50.861Z,37.23
2018-12-19T05:28:18.277Z,41.13
2018-12-19T05:30:45.668Z,30.60
2018-12-19T05:33:13.082Z,34.92
2018-12-19T05:35:40.472Z,33.53
2018-12-19T05:38:07.870Z,44.23
2018-12-19T05:40:35.277Z,41.40
2018-12-19T05:43:02.668Z,38.53
2018-12-19T05:45:30.068Z,36.13
2018-12-19T05:47:57.465Z,34.23
2018-12-19T05:50:25.207Z,39.55
2018-12-19T05:52:52.600Z,33.70
2018-12-19T05:55:19.997Z,35.80
2018-12-19T05:57:47.396Z,36.63
2018-12-19T06:00:14.788Z,39.90
2018-12-19T06:02:42.198Z,42.60
2018-12-19T06:05:09.680Z,31.33
2018-12-19T06:07:37.064Z,30.80
2018-12-19T06:10:04.871Z,36.80
2018-12-19T06:12:32.270Z,29.48
2018-12-19T06:14:59.669Z,38.05
2018-12-19T06:17:27.061Z,41.60
2018-12-19T06:19:54.466Z,33.75
2018-12-19T06:22:21.856Z,35.30
2018-12-19T06:24:49.282Z,35.08
2018-12-19T06:27:16.740Z,35.48
2018-12-19T06:29:44.156Z,40.10
2018-12-19T06:32:11.561Z,33.38
2018-12-19T06:34:38.975Z,29.42
2018-12-19T06:37:06.493Z,32.55
2018-12-19T06:39:33.926Z,34.65
2018-12-19T06:42:01.304Z,39.50
2018-12-19T06:44:28.709Z,37.40
2018-12-19T06:46:56.112Z,46.65
2018-12-19T06:49:23.504Z,33.95
2018-12-19T06:51:50.980Z,40.20
2018-12-19T06:54:18.432Z,37.35
2018-12-19T06:56:45.844Z,37.25
2018-12-19T06:59:13.244Z,43.58
2018-12-19T07:01:40.660Z,47.35
2018-12-19T07:04:08.058Z,40.03
2018-12-19T07:06:35.456Z,48.45
2018-12-19T07:09:03.477Z,45.98
2018-12-19T07:11:30.915Z,46.90
2018-12-19T07:13:58.312Z,43.92
2018-12-19T07:16:25.716Z,45.40
2018-12-19T07:18:53.112Z,58.28
2018-12-19T07:21:20.512Z,46.88
2018-12-19T07:23:47.921Z,47.30
2018-12-19T07:26:15.315Z,54.90
2018-12-19T07:28:42.815Z,55.17
2018-12-19T07:31:10.200Z,69.47
2018-12-19T07:33:37.592Z,54.05
2018-12-19T07:36:05.036Z,46.28
2018-12-19T07:38:32.451Z,50.23
2018-12-19T07:40:59.993Z,46.28
2018-12-19T07:43:27.449Z,44.45
2018-12-19T07:45:54.834Z,51.68
2018-12-19T07:48:22.274Z,59.05
2018-12-19T07:50:49.668Z,45.98
2018-12-19T07:53:17.073Z,42.35
2018-12-19T07:55:44.816Z,59.38
2018-12-19T07:58:12.220Z,50.92
2018-12-19T08:00:39.634Z,48.28
2018-12-19T08:03:07.080Z,54.30
2018-12-19T08:05:34.488Z,48.08
2018-12-19T08:08:01.884Z,48.00
2018-12-19T08:10:29.282Z,43.35
2018-12-19T08:12:56.732Z,41.88
2018-12-19T08:15:24.130Z,44.05
2018-12-19T08:17:51.525Z,46.05
2018-12-19T08:20:18.924Z,51.35
2018-12-19T08:22:46.333Z,45.20
2018-12-19T08:25:13.742Z,43.98
2018-12-19T08:27:41.188Z,48.90
2018-12-19T08:30:09.493Z,49.00
2018-12-19T08:32:36.963Z,44.75
2018-12-19T08:35:05.696Z,47.98
2018-12-19T08:37:33.101Z,59.65
2018-12-19T08:40:00.500Z,47.73
2018-12-19T08:42:27.892Z,48.05
2018-12-19T08:44:55.291Z,49.48
2018-12-19T08:47:22.700Z,50.70
2018-12-19T08:49:50.093Z,47.33
2018-12-19T08:52:17.540Z,62.35
2018-12-19T08:54:44.960Z,52.30
2018-12-19T08:57:12.355Z,51.18
2018-12-19T08:59:39.750Z,49.77
2018-12-19T09:02:07.150Z,54.63
2018-12-19T09:04:34.571Z,60.17
2018-12-19T09:07:01.964Z,57.27
2018-12-19T09:09:29.372Z,72.03
2018-12-19T09:11:56.776Z,55.83
2018-12-19T09:14:24.185Z,65.25
2018-12-19T09:16:51.576Z,61.42
2018-12-19T09:19:19.819Z,62.45
2018-12-19T09:21:47.205Z,63.00
2018-12-19T09:24:14.601Z,57.95
2018-12-19T09:26:42.005Z,59.95
2018-12-19T09:29:09.445Z,57.83
2018-12-19T09:31:36.836Z,65.47
2018-12-19T09:34:04.299Z,56.65
2018-12-19T09:36:31.692Z,67.05
2018-12-19T09:38:59.084Z,59.50
2018-12-19T09:41:26.494Z,61.18
2018-12-19T09:43:53.893Z,62.25
2018-12-19T09:46:21.295Z,50.52
2018-12-19T09:48:48.704Z,59.95
2018-12-19T09:51:16.144Z,56.98
2018-12-19T09:53:43.592Z,72.65
2018-12-19T09:56:10.988Z,57.95
2018-12-19T09:58:38.384Z,65.35
2018-12-19T10:01:05.978Z,58.83
2018-12-19T10:03:34.172Z,58.50
2018-12-19T10:06:01.624Z,58.98
2018-12-19T10:08:29.031Z,53.78
2018-12-19T10:10:56.423Z,54.65
2018-12-19T10:13:23.825Z,61.50
2018-12-19T10:15:51.236Z,52.38
2018-12-19T10:18:18.633Z,56.88
2018-12-19T10:20:46.038Z,65.47
2018-12-19T10:23:13.464Z,55.43
2018-12-19T10:25:40.849Z,55.28
2018-12-19T10:28:08.238Z,59.20
2018-12-19T10:30:37.584Z,52.70
2018-12-19T10:33:04.992Z,59.53
2018-12-19T10:35:32.394Z,65.70
2018-12-19T10:37:59.783Z,63.40
2018-12-19T10:40:27.188Z,57.38
2018-12-19T10:42:54.640Z,56.23
2018-12-19T10:45:22.052Z,60.12
2018-12-19T10:47:49.452Z,56.15
2018-12-19T10:50:16.862Z,58.10
2018-12-19T10:52:44.264Z,68.28
2018-12-19T10:55:11.657Z,61.65
2018-12-19T10:57:39.075Z,67.15
2018-12-19T11:00:10.212Z,60.12
2018-12-19T11:02:37.725Z,65.78
2018-12-19T11:05:05.309Z,68.45
2018-12-19T11:07:32.712Z,58.25
2018-12-19T11:10:00.112Z,63.48
2018-12-19T11:12:27.524Z,63.33
2018-12-19T11:14:54.925Z,64.40
2018-12-19T11:17:22.325Z,61.92
2018-12-19T11:19:49.736Z,64.07
2018-12-19T11:22:17.135Z,64.92
2018-12-19T11:24:44.539Z,59.50
2018-12-19T11:27:12.065Z,64.00
2018-12-19T11:29:39.552Z,62.40
2018-12-19T11:32:06.964Z,70.22
2018-12-19T11:34:34.363Z,60.90
2018-12-19T11:37:01.782Z,60.35
2018-12-19T11:39:29.202Z,59.77
2018-12-19T11:41:56.678Z,66.05
2018-12-19T11:44:24.260Z,67.65
2018-12-19T11:46:51.669Z,60.88
2018-12-19T11:49:19.082Z,63.38
2018-12-19T11:51:46.499Z,67.08
2018-12-19T11:54:13.915Z,67.37
2018-12-19T11:56:41.320Z,79.47
2018-12-19T11:59:08.730Z,76.25
2018-12-19T12:01:41.392Z,57.95
2018-12-19T12:04:05.556Z,62.65
2018-12-19T12:06:33.020Z,54.42
2018-12-19T12:09:00.439Z,62.93
2018-12-19T12:11:27.933Z,70.42
2018-12-19T12:13:55.334Z,71.75
2018-12-19T12:16:22.753Z,67.17
2018-12-19T12:18:50.169Z,62.48
2018-12-19T12:21:18.579Z,71.25
2018-12-19T12:23:47.385Z,71.10
2018-12-19T12:26:14.943Z,68.33
2018-12-19T12:28:42.352Z,68.55
2018-12-19T12:31:09.782Z,82.17
2018-12-19T12:33:37.196Z,68.70
2018-12-19T12:36:04.811Z,68.20
2018-12-19T12:38:34.224Z,84.90
2018-12-19T12:41:01.613Z,67.62
2018-12-19T12:43:29.042Z,68.80
2018-12-19T12:45:56.444Z,73.75
2018-12-19T12:48:23.857Z,65.80
2018-12-19T12:50:51.281Z,93.42
2018-12-19T12:53:19.617Z,68.52
2018-12-19T12:55:47.091Z,73.83
2018-12-19T12:58:14.498Z,74.77
2018-12-19T13:00:41.900Z,74.75
2018-12-19T13:03:09.308Z,75.62
2018-12-19T13:05:36.721Z,82.55
2018-12-19T13:08:04.155Z,74.05
2018-12-19T13:10:36.305Z,77.50
2018-12-19T13:13:01.017Z,69.42
2018-12-19T13:15:34.028Z,83.47
2018-12-19T13:18:01.872Z,79.50
2018-12-19T13:20:29.264Z,68.12
2018-12-19T13:22:56.690Z,71.00
2018-12-19T13:25:24.182Z,67.87
2018-12-19T13:27:51.861Z,83.45
2018-12-19T13:30:19.299Z,82.60
2018-12-19T13:32:46.709Z,98.58
2018-12-19T13:35:14.184Z,69.05
2018-12-19T13:37:41.781Z,72.62
2018-12-19T13:40:09.328Z,72.67
2018-12-19T13:42:36.744Z,81.32
2018-12-19T13:45:05.567Z,72.35
2018-12-19T13:47:33.088Z,76.60
2018-12-19T13:50:00.508Z,69.25
2018-12-19T13:52:27.927Z,64.40
2018-12-19T13:54:55.343Z,79.20
2018-12-19T13:57:22.765Z,63.50
2018-12-19T13:59:50.176Z,73.22
2018-12-19T14:02:17.589Z,70.85
2018-12-19T14:04:45.569Z,68.95
2018-12-19T14:07:13.086Z,79.15
2018-12-19T14:09:40.502Z,74.03
2018-12-19T14:12:12.322Z,71.12
2018-12-19T14:14:37.343Z,76.30
2018-12-19T14:17:04.841Z,64.40
2018-12-19T14:19:32.256Z,58.13
2018-12-19T14:21:59.665Z,56.37
2018-12-19T14:24:27.075Z,60.63
2018-12-19T14:26:54.492Z,95.07
2018-12-19T14:29:21.920Z,72.75
2018-12-19T14:31:49.316Z,70.80
2018-12-19T14:34:16.733Z,63.40
2018-12-19T14:36:44.184Z,86.65
2018-12-19T14:39:11.682Z,75.22
2018-12-19T14:41:39.094Z,78.00
2018-12-19T14:44:06.592Z,81.67
2018-12-19T14:46:34.001Z,82.37
2018-12-19T14:49:01.483Z,98.00
2018-12-19T14:51:28.896Z,82.45
2018-12-19T14:53:56.307Z,80.72
2018-12-19T14:56:23.765Z,99.07
2018-12-19T14:58:51.184Z,78.25
2018-12-19T15:01:19.571Z,72.03
2018-12-19T15:03:47.004Z,64.53
2018-12-19T15:06:14.416Z,68.83
2018-12-19T15:08:41.885Z,53.65
2018-12-19T15:11:09.290Z,68.57
2018-12-19T15:13:36.697Z,60.38
2018-12-19T15:16:04.164Z,64.42
2018-12-19T15:18:31.685Z,58.73
2018-12-19T15:20:59.121Z,53.80
2018-12-19T15:23:26.533Z,64.60
2018-12-19T15:25:53.993Z,53.25
2018-12-19T15:28:21.415Z,69.45
2018-12-19T15:30:48.828Z,77.70
2018-12-19T15:33:16.226Z,77.45
2018-12-19T15:35:43.657Z,85.03
2018-12-19T15:38:11.065Z,84.55
2018-12-19T15:40:38.472Z,80.53
2018-12-19T15:43:06.868Z,69.15
2018-12-19T15:45:34.338Z,63.87
2018-12-19T15:48:01.746Z,68.85
2018-12-19T15:50:29.170Z,58.00
2018-12-19T15:52:56.581Z,52.50
2018-12-19T15:55:23.990Z,56.40
2018-12-19T15:57:51.406Z,55.97
2018-12-19T16:00:18.865Z,58.68
2018-12-19T16:02:47.169Z,55.75
2018-12-19T16:05:14.600Z,61.90
2018-12-19T16:07:42.009Z,61.75
2018-12-19T16:10:09.516Z,61.43
2018-12-19T16:12:39.364Z,57.23
2018-12-19T16:15:06.969Z,62.03
2018-12-19T16:17:34.434Z,63.42
2018-12-19T16:20:01.852Z,59.53
2018-12-19T16:22:29.310Z,51.80
2018-12-19T16:24:56.718Z,56.60
2018-12-19T16:27:24.185Z,56.90
2018-12-19T16:29:52.528Z,66.12
2018-12-19T16:32:19.941Z,62.48
2018-12-19T16:34:47.376Z,49.75
2018-12-19T16:37:14.925Z,57.43
2018-12-19T16:39:42.329Z,54.40
2018-12-19T16:42:09.756Z,61.65
2018-12-19T16:44:37.269Z,61.13
2018-12-19T16:47:04.672Z,44.80
2018-12-19T16:49:32.148Z,57.40
2018-12-19T16:51:59.566Z,65.83
2018-12-19T16:54:26.967Z,55.53
2018-12-19T16:56:54.391Z,47.83
2018-12-19T16:59:21.856Z,47.63
2018-12-19T17:01:49.364Z,52.45
2018-12-19T17:04:16.858Z,61.98
2018-12-19T17:06:44.293Z,59.30
2018-12-19T17:09:11.797Z,67.70
2018-12-19T17:11:39.298Z,62.58
2018-12-19T17:14:06.736Z,62.27
2018-12-19T17:16:34.185Z,58.83
2018-12-19T17:19:01.623Z,57.30
2018-12-19T17:21:29.031Z,60.67
2018-12-19T17:23:56.441Z,56.40
2018-12-19T17:26:23.866Z,58.30
2018-12-19T17:28:51.332Z,61.85
2018-12-19T17:31:18.798Z,56.03
2018-12-19T17:33:46.220Z,54.70
2018-12-19T17:36:13.629Z,63.30
2018-12-19T17:38:41.028Z,63.65
2018-12-19T17:41:08.664Z,62.93
2018-12-19T17:43:36.064Z,63.33
2018-12-19T17:46:03.569Z,55.33
2018-12-19T17:48:31.008Z,60.93
2018-12-19T17:50:58.520Z,59.50
2018-12-19T17:53:26.712Z,60.25
2018-12-19T17:55:54.487Z,66.05
2018-12-19T17:58:21.885Z,73.85
2018-12-19T18:00:49.280Z,61.00
2018-12-19T18:03:16.701Z,64.23
2018-12-19T18:05:44.125Z,67.80
2018-12-19T18:08:11.530Z,71.00
2018-12-19T18:10:38.940Z,71.80
2018-12-19T18:13:06.563Z,67.67
2018-12-19T18:15:34.143Z,63.80
2018-12-19T18:18:01.696Z,60.80
2018-12-19T18:20:29.144Z,73.25
2018-12-19T18:22:56.548Z,65.00
2018-12-19T18:25:23.961Z,68.07
2018-12-19T18:27:51.360Z,64.90
2018-12-19T18:30:18.764Z,60.23
2018-12-19T18:32:46.180Z,66.07
2018-12-19T18:35:13.598Z,63.55
2018-12-19T18:37:41.002Z,57.05
2018-12-19T18:40:09.244Z,54.65
2018-12-19T18:42:36.666Z,57.10
2018-12-19T18:45:11.637Z,53.87
2018-12-19T18:47:34.553Z,43.43
2018-12-19T18:50:01.960Z,49.67
2018-12-19T18:52:29.373Z,34.75
2018-12-19T18:54:56.772Z,39.70
2018-12-19T18:57:24.225Z,44.00
2018-12-19T18:59:51.652Z,38.63
2018-12-19T19:02:19.175Z,48.45
2018-12-19T19:04:46.695Z,47.33
2018-12-19T19:07:14.235Z,35.45
2018-12-19T19:09:41.737Z,36.60
2018-12-19T19:12:09.136Z,39.42
2018-12-19T19:14:36.554Z,63.50
2018-12-19T19:17:03.956Z,35.23
2018-12-19T19:19:31.408Z,31.48
2018-12-19T19:21:58.824Z,47.55
2018-12-19T19:24:26.273Z,40.30
2018-12-19T19:26:53.773Z,39.20
2018-12-19T19:29:21.181Z,33.60
2018-12-19T19:31:48.588Z,35.03
2018-12-19T19:34:16.058Z,34.00
2018-12-19T19:36:43.461Z,35.73
2018-12-19T19:39:10.855Z,34.07
2018-12-19T19:41:38.280Z,32.67
2018-12-19T19:44:05.688Z,31.40
2018-12-19T19:46:33.181Z,30.35
2018-12-19T19:49:00.636Z,34.13
2018-12-19T19:51:29.181Z,30.90
2018-12-19T19:53:56.638Z,30.68
2018-12-19T19:56:24.032Z,28.60
2018-12-19T19:58:51.436Z,28.80
2018-12-19T20:01:18.949Z,30.73
2018-12-19T20:03:46.447Z,22.60
2018-12-19T20:06:13.849Z,27.42
2018-12-19T20:08:41.256Z,31.87
2018-12-19T20:11:08.678Z,30.77
2018-12-19T20:13:36.128Z,17.40
2018-12-19T20:16:03.532Z,25.17
2018-12-19T20:18:30.940Z,13.32
2018-12-19T20:20:58.343Z,18.17
2018-12-19T20:23:25.786Z,19.50
2018-12-19T20:25:53.276Z,10.90
2018-12-19T20:28:20.666Z,7.93
2018-12-19T20:30:48.061Z,9.00
2018-12-19T20:33:15.467Z,30.80
2018-12-19T20:35:42.852Z,8.03
2018-12-19T20:38:10.354Z,14.60
2018-12-19T20:40:37.795Z,9.90
2018-12-19T20:43:06.789Z,9.13
2018-12-19T20:45:34.465Z,7.90
2018-12-19T20:48:01.874Z,8.20
2018-12-19T20:50:29.260Z,7.10
2018-12-19T20:52:56.660Z,14.23
2018-12-19T20:55:24.061Z,9.87
2018-12-19T20:57:51.468Z,6.93
2018-12-19T21:00:18.981Z,13.48
2018-12-19T21:02:46.549Z,12.80
2018-12-19T21:05:13.994Z,10.43
2018-12-19T21:07:41.437Z,17.02
2018-12-19T21:10:08.895Z,14.73
2018-12-19T21:12:36.292Z,11.40
2018-12-19T21:15:04.815Z,11.35
2018-12-19T21:17:37.692Z,12.85
2018-12-19T21:20:06.315Z,9.03
2018-12-19T21:22:33.721Z,11.00
2018-12-19T21:25:01.118Z,10.40
2018-12-19T21:27:28.609Z,19.05
2018-12-19T21:29:55.980Z,12.85
2018-12-19T21:32:23.376Z,8.45
2018-12-19T21:34:50.797Z,12.05
2018-12-19T21:37:18.197Z,12.95
2018-12-19T21:39:45.596Z,12.05
2018-12-19T21:42:13.031Z,8.43
2018-12-19T21:44:40.519Z,14.28
2018-12-19T21:47:07.910Z,9.30
2018-12-19T21:49:35.342Z,20.85
2018-12-19T21:52:02.801Z,14.50
2018-12-19T21:54:30.251Z,13.48
2018-12-19T21:56:57.709Z,21.70
2018-12-19T21:59:25.165Z,8.23
2018-12-19T22:01:52.617Z,6.80
2018-12-19T22:04:20.096Z,6.90
2018-12-19T22:06:47.548Z,7.50
2018-12-19T22:09:15.056Z,9.48
2018-12-19T22:11:42.561Z,8.18
2018-12-19T22:14:10.085Z,7.25
2018-12-19T22:16:43.017Z,6.08
2018-12-19T22:19:10.505Z,7.42
2018-12-19T22:21:38.035Z,6.53
2018-12-19T22:24:05.481Z,8.63
2018-12-19T22:26:32.879Z,7.05
2018-12-19T22:29:00.337Z,5.93
2018-12-19T22:31:27.857Z,7.00
2018-12-19T22:33:55.310Z,5.85
2018-12-19T22:36:22.805Z,6.65
2018-12-19T22:38:50.222Z,6.22
2018-12-19T22:41:17.790Z,5.95
2018-12-19T22:43:45.230Z,6.72
2018-12-19T22:46:12.721Z,6.40
2018-12-19T22:48:40.120Z,8.90
2018-12-19T22:51:07.508Z,6.20
2018-12-19T22:53:35.008Z,5.78
2018-12-19T22:56:02.423Z,6.20
2018-12-19T22:58:30.000Z,7.67
2018-12-19T23:01:03.090Z,6.60
2018-12-19T23:03:36.241Z,6.08
2018-12-19T23:06:03.718Z,6.75
2018-12-19T23:08:31.357Z,6.20
2018-12-19T23:10:58.769Z,7.58
2018-12-19T23:13:26.260Z,7.35
2018-12-19T23:15:53.810Z,5.10
2018-12-19T23:18:27.270Z,5.55
2018-12-19T23:20:55.227Z,6.97
2018-12-19T23:23:22.663Z,5.72
2018-12-19T23:25:50.288Z,6.97
2018-12-19T23:28:17.679Z,7.15
2018-12-19T23:30:45.080Z,6.90
2018-12-19T23:33:12.656Z,12.30
2018-12-19T23:35:40.184Z,8.40
2018-12-19T23:38:07.638Z,11.60
2018-12-19T23:40:35.107Z,7.05
2018-12-19T23:43:02.616Z,14.70
2018-12-19T23:45:30.120Z,5.95
2018-12-19T23:47:57.564Z,6.50
2018-12-19T23:50:25.012Z,6.08
2018-12-19T23:52:52.484Z,6.43
2018-12-19T23:55:19.955Z,6.83
2018-12-19T23:57:47.529Z,8.27
